createdAt,value
2024-02-24T00:00:13.252Z,83.13
2024-02-24T00:03:32.745Z,82.50
2024-02-24T00:06:51.090Z,82.20
2024-02-24T00:10:09.337Z,82.43
2024-02-24T00:13:27.437Z,82.30
2024-02-24T00:16:45.604Z,82.70
2024-02-24T00:20:03.791Z,82.77
2024-02-24T00:23:21.737Z,82.24
2024-02-24T00:26:39.674Z,82.45
2024-02-24T00:30:00.735Z,82.06
2024-02-24T00:33:19.296Z,81.13
2024-02-24T00:36:37.735Z,80.70
2024-02-24T00:39:56.242Z,80.81
2024-02-24T00:43:14.545Z,79.93
2024-02-24T00:46:32.267Z,80.33
2024-02-24T00:49:50.203Z,80.06
2024-02-24T00:53:08.306Z,79.97
2024-02-24T00:56:26.484Z,79.55
2024-02-24T00:59:44.921Z,80.18
2024-02-24T01:03:02.568Z,79.95
2024-02-24T01:06:21.080Z,79.97
2024-02-24T01:09:39.034Z,80.87
2024-02-24T01:12:56.757Z,80.75
2024-02-24T01:16:15.199Z,81.14
2024-02-24T01:19:32.760Z,80.28
2024-02-24T01:22:52.241Z,79.96
2024-02-24T01:26:09.935Z,79.22
2024-02-24T01:29:27.669Z,78.51
2024-02-24T01:32:45.622Z,77.67
2024-02-24T01:36:03.475Z,76.41
2024-02-24T01:39:21.141Z,76.09
2024-02-24T01:42:38.688Z,74.72
2024-02-24T01:45:56.621Z,73.96
2024-02-24T01:49:14.756Z,74.26
2024-02-24T01:52:32.856Z,73.37
2024-02-24T01:55:50.642Z,73.64
2024-02-24T01:59:08.249Z,73.55
2024-02-24T02:02:26.252Z,73.17
2024-02-24T02:05:43.973Z,73.41
2024-02-24T02:09:02.014Z,73.23
2024-02-24T02:12:20.094Z,73.06
2024-02-24T02:15:38.827Z,73.08
2024-02-24T02:18:56.681Z,73.28
2024-02-24T02:22:16.413Z,72.91
2024-02-24T02:25:34.144Z,73.29
2024-02-24T02:28:51.757Z,73.01
2024-02-24T02:32:10.101Z,72.75
2024-02-24T02:35:28.268Z,72.60
2024-02-24T02:38:46.014Z,72.66
2024-02-24T02:42:03.743Z,72.54
2024-02-24T02:45:21.493Z,72.74
2024-02-24T02:48:39.202Z,72.52
2024-02-24T02:51:57.238Z,72.52
2024-02-24T02:55:16.156Z,72.50
2024-02-24T02:58:33.787Z,71.99
2024-02-24T03:01:57.466Z,72.63
2024-02-24T03:05:16.716Z,72.02
2024-02-24T03:08:35.723Z,73.08
2024-02-24T03:11:53.599Z,72.92
2024-02-24T03:15:12.411Z,72.43
2024-02-24T03:18:30.637Z,73.13
2024-02-24T03:21:48.539Z,72.43
2024-02-24T03:25:06.130Z,72.81
2024-02-24T03:28:23.745Z,72.57
2024-02-24T03:31:41.410Z,72.29
2024-02-24T03:34:59.041Z,72.01
2024-02-24T03:38:17.124Z,71.37
2024-02-24T03:41:38.754Z,70.93
2024-02-24T03:44:56.374Z,70.76
2024-02-24T03:48:15.286Z,70.64
2024-02-24T03:51:33.015Z,70.55
2024-02-24T03:54:50.697Z,69.63
2024-02-24T03:58:08.462Z,69.27
2024-02-24T04:01:27.853Z,69.52
2024-02-24T04:04:45.516Z,70.14
2024-02-24T04:08:03.203Z,69.74
2024-02-24T04:11:21.015Z,70.31
2024-02-24T04:14:39.292Z,70.17
2024-02-24T04:17:57.215Z,70.85
2024-02-24T04:21:15.844Z,70.32
2024-02-24T04:24:33.404Z,70.56
2024-02-24T04:27:50.937Z,70.61
2024-02-24T04:31:08.821Z,70.56
2024-02-24T04:34:26.422Z,70.46
2024-02-24T04:37:44.167Z,70.18
2024-02-24T04:41:01.998Z,69.76
2024-02-24T04:44:20.233Z,69.62
2024-02-24T04:47:37.926Z,69.63
2024-02-24T04:50:56.008Z,69.45
2024-02-24T04:54:15.662Z,69.66
2024-02-24T04:57:34.596Z,70.32
2024-02-24T05:00:52.586Z,70.44
2024-02-24T05:04:10.416Z,71.08
2024-02-24T05:07:28.709Z,70.82
2024-02-24T05:10:46.344Z,69.79
2024-02-24T05:14:04.075Z,70.58
2024-02-24T05:17:23.155Z,70.03
2024-02-24T05:20:41.861Z,69.58
2024-02-24T05:23:59.708Z,69.52
2024-02-24T05:27:17.389Z,68.98
2024-02-24T05:30:34.485Z,69.21
2024-02-24T05:33:49.744Z,68.42
2024-02-24T05:37:07.153Z,68.60
2024-02-24T05:40:25.358Z,68.31
2024-02-24T05:43:43.192Z,69.21
2024-02-24T05:47:00.774Z,68.70
2024-02-24T05:50:19.914Z,68.64
2024-02-24T05:53:37.961Z,68.87
2024-02-24T05:56:56.111Z,68.50
2024-02-24T06:00:16.674Z,68.18
2024-02-24T06:03:34.436Z,68.63
2024-02-24T06:06:52.449Z,68.29
2024-02-24T06:10:10.830Z,68.51
2024-02-24T06:13:28.458Z,68.00
2024-02-24T06:16:46.073Z,67.25
2024-02-24T06:20:03.679Z,66.89
2024-02-24T06:23:21.554Z,65.74
2024-02-24T06:26:39.371Z,64.61
2024-02-24T06:29:57.419Z,63.83
2024-02-24T06:33:15.508Z,63.34
2024-02-24T06:36:33.212Z,63.27
2024-02-24T06:39:50.894Z,62.82
2024-02-24T06:43:08.571Z,62.70
2024-02-24T06:46:26.652Z,63.23
2024-02-24T06:49:44.339Z,63.27
2024-02-24T06:53:02.266Z,62.12
2024-02-24T06:56:20.660Z,62.26
2024-02-24T06:59:38.323Z,61.93
2024-02-24T07:02:56.736Z,62.09
2024-02-24T07:06:15.555Z,62.37
2024-02-24T07:09:33.215Z,61.49
2024-02-24T07:12:51.105Z,61.88
2024-02-24T07:16:08.746Z,61.49
2024-02-24T07:19:26.378Z,62.22
2024-02-24T07:22:44.028Z,62.66
2024-02-24T07:26:01.755Z,62.74
2024-02-24T07:29:19.647Z,63.22
2024-02-24T07:32:40.966Z,63.01
2024-02-24T07:35:56.749Z,63.58
2024-02-24T07:39:14.780Z,63.76
2024-02-24T07:42:32.446Z,63.06
2024-02-24T07:45:50.998Z,64.12
2024-02-24T07:49:09.918Z,64.21
2024-02-24T07:52:27.789Z,63.01
2024-02-24T07:55:45.516Z,61.72
2024-02-24T07:59:03.402Z,60.67
2024-02-24T08:02:21.283Z,60.91
2024-02-24T08:05:41.791Z,60.34
2024-02-24T08:08:59.780Z,61.14
2024-02-24T08:12:18.470Z,60.81
2024-02-24T08:15:36.233Z,61.31
2024-02-24T08:18:54.047Z,61.29
2024-02-24T08:22:11.971Z,61.85
2024-02-24T08:25:29.806Z,66.76
2024-02-24T08:28:47.516Z,70.54
2024-02-24T08:32:05.319Z,73.15
2024-02-24T08:35:23.675Z,74.59
2024-02-24T08:38:41.527Z,76.08
2024-02-24T08:41:59.712Z,74.81
2024-02-24T08:45:18.597Z,73.13
2024-02-24T08:48:37.567Z,71.29
2024-02-24T08:51:55.194Z,70.20
2024-02-24T08:55:13.812Z,66.71
2024-02-24T08:58:31.559Z,64.96
2024-02-24T09:01:49.084Z,62.92
2024-02-24T09:05:06.640Z,61.14
2024-02-24T09:08:24.447Z,61.02
2024-02-24T09:11:42.292Z,59.13
2024-02-24T09:15:00.067Z,57.95
2024-02-24T09:18:18.132Z,57.48
2024-02-24T09:21:36.650Z,58.25
2024-02-24T09:24:54.410Z,59.99
2024-02-24T09:28:13.246Z,60.64
2024-02-24T09:31:32.452Z,61.04
2024-02-24T09:34:50.438Z,59.81
2024-02-24T09:38:08.264Z,57.84
2024-02-24T09:41:28.377Z,58.19
2024-02-24T09:44:46.618Z,57.82
2024-02-24T09:48:05.179Z,57.93
2024-02-24T09:51:23.088Z,56.68
2024-02-24T09:54:40.869Z,57.15
2024-02-24T09:57:58.794Z,56.51
2024-02-24T10:01:16.905Z,56.10
2024-02-24T10:04:38.818Z,55.52
2024-02-24T10:07:59.150Z,55.86
2024-02-24T10:11:16.673Z,55.62
2024-02-24T10:14:36.952Z,54.87
2024-02-24T10:17:54.699Z,54.71
2024-02-24T10:21:13.003Z,54.54
2024-02-24T10:24:32.510Z,52.70
2024-02-24T10:27:53.044Z,54.33
2024-02-24T10:31:11.408Z,55.46
2024-02-24T10:34:29.087Z,55.53
2024-02-24T10:38:03.252Z,55.90
2024-02-24T10:41:07.766Z,56.45
2024-02-24T10:44:25.789Z,55.87
2024-02-24T10:47:43.807Z,56.33
2024-02-24T10:51:01.942Z,55.97
2024-02-24T10:54:24.133Z,56.60
2024-02-24T10:57:42.053Z,56.64
2024-02-24T11:01:00.242Z,56.68
2024-02-24T11:04:19.402Z,57.22
2024-02-24T11:07:41.272Z,57.06
2024-02-24T11:11:02.053Z,57.72
2024-02-24T11:14:20.156Z,57.98
2024-02-24T11:18:00.307Z,57.59
2024-02-24T11:21:18.499Z,58.60
2024-02-24T11:24:41.973Z,58.47
2024-02-24T11:28:05.713Z,58.66
2024-02-24T11:31:33.187Z,58.21
2024-02-24T11:34:52.823Z,57.69
2024-02-24T11:38:10.897Z,57.66
2024-02-24T11:41:28.435Z,58.58
2024-02-24T11:44:46.339Z,59.00
2024-02-24T11:48:04.130Z,59.19
2024-02-24T11:51:21.930Z,60.01
2024-02-24T11:54:44.677Z,61.03
2024-02-24T11:58:05.003Z,61.84
2024-02-24T12:01:25.108Z,61.99
2024-02-24T12:04:43.194Z,62.73
2024-02-24T12:08:02.950Z,62.62
2024-02-24T12:11:20.924Z,62.05
2024-02-24T12:14:40.007Z,61.94
2024-02-24T12:17:59.534Z,61.78
2024-02-24T12:21:18.709Z,61.37
2024-02-24T12:24:39.885Z,61.36
2024-02-24T12:27:58.982Z,61.58
2024-02-24T12:31:17.209Z,61.27
2024-02-24T12:34:35.399Z,61.67
2024-02-24T12:37:55.059Z,62.11
2024-02-24T12:41:18.720Z,62.10
2024-02-24T12:44:36.565Z,62.69
2024-02-24T12:47:56.545Z,62.50
2024-02-24T12:51:14.346Z,63.03
2024-02-24T12:54:31.961Z,62.90
2024-02-24T12:57:49.940Z,63.36
2024-02-24T13:01:08.997Z,62.89
2024-02-24T13:04:26.641Z,62.82
2024-02-24T13:07:44.789Z,62.15
2024-02-24T13:11:03.440Z,62.02
2024-02-24T13:14:21.034Z,61.32
2024-02-24T13:17:38.816Z,61.34
2024-02-24T13:20:56.544Z,61.42
2024-02-24T13:24:15.108Z,61.15
2024-02-24T13:27:32.771Z,61.24
2024-02-24T13:30:50.447Z,61.05
2024-02-24T13:34:08.289Z,61.29
2024-02-24T13:37:26.346Z,60.90
2024-02-24T13:40:44.124Z,61.07
2024-02-24T13:44:01.862Z,60.26
2024-02-24T13:47:20.164Z,60.58
2024-02-24T13:50:39.955Z,60.27
2024-02-24T13:53:57.730Z,60.01
2024-02-24T13:57:16.951Z,60.26
2024-02-24T14:00:34.880Z,59.63
2024-02-24T14:03:52.323Z,59.69
2024-02-24T14:07:10.340Z,59.92
2024-02-24T14:10:28.216Z,59.28
2024-02-24T14:13:45.858Z,60.13
2024-02-24T14:17:03.903Z,60.01
2024-02-24T14:20:28.488Z,59.92
2024-02-24T14:23:46.949Z,59.78
2024-02-24T14:27:07.454Z,59.96
2024-02-24T14:30:27.301Z,59.93
2024-02-24T14:33:44.925Z,59.81
2024-02-24T14:37:02.914Z,60.22
2024-02-24T14:40:24.213Z,60.52
2024-02-24T14:43:42.367Z,61.07
2024-02-24T14:47:09.582Z,60.38
2024-02-24T14:50:27.324Z,60.45
2024-02-24T14:53:44.939Z,60.32
2024-02-24T14:57:02.637Z,60.49
2024-02-24T15:00:22.678Z,60.40
2024-02-24T15:03:41.673Z,60.40
2024-02-24T15:06:59.422Z,60.26
2024-02-24T15:10:19.141Z,59.51
2024-02-24T15:13:37.996Z,59.63
2024-02-24T15:16:55.806Z,59.40
2024-02-24T15:20:14.949Z,58.71
2024-02-24T15:23:33.166Z,59.06
2024-02-24T15:26:53.168Z,58.28
2024-02-24T15:30:11.437Z,58.49
2024-02-24T15:33:29.767Z,58.45
2024-02-24T15:36:50.492Z,59.01
2024-02-24T15:40:10.464Z,58.73
2024-02-24T15:43:30.009Z,58.84
2024-02-24T15:46:48.592Z,59.01
2024-02-24T15:50:05.656Z,59.06
2024-02-24T15:53:24.634Z,59.75
2024-02-24T15:56:42.518Z,59.70
2024-02-24T16:00:00.259Z,60.01
2024-02-24T16:03:18.115Z,60.99
2024-02-24T16:06:36.101Z,61.69
2024-02-24T16:09:54.021Z,62.17
2024-02-24T16:13:12.655Z,62.73
2024-02-24T16:16:30.742Z,63.63
2024-02-24T16:19:50.751Z,63.70
2024-02-24T16:23:08.576Z,64.11
2024-02-24T16:26:26.351Z,65.50
2024-02-24T16:29:44.493Z,66.17
2024-02-24T16:33:02.526Z,66.45
2024-02-24T16:36:21.552Z,66.74
2024-02-24T16:39:39.057Z,67.43
2024-02-24T16:42:57.370Z,67.13
2024-02-24T16:46:15.376Z,67.45
2024-02-24T16:49:32.681Z,68.24
2024-02-24T16:52:50.458Z,68.07
2024-02-24T16:56:08.092Z,68.57
2024-02-24T16:59:25.754Z,69.42
2024-02-24T17:02:43.686Z,69.67
2024-02-24T17:06:02.637Z,70.35
2024-02-24T17:09:24.601Z,70.52
2024-02-24T17:12:42.362Z,70.82
2024-02-24T17:16:00.137Z,71.26
2024-02-24T17:19:18.307Z,70.88
2024-02-24T17:22:37.670Z,71.58
2024-02-24T17:25:56.740Z,71.40
2024-02-24T17:29:14.932Z,71.84
2024-02-24T17:32:32.852Z,71.49
2024-02-24T17:35:50.555Z,72.33
2024-02-24T17:39:08.670Z,72.92
2024-02-24T17:42:26.326Z,73.17
2024-02-24T17:45:43.918Z,73.39
2024-02-24T17:49:01.616Z,73.74
2024-02-24T17:52:19.456Z,74.37
2024-02-24T17:55:37.134Z,74.61
2024-02-24T17:58:55.432Z,75.52
2024-02-24T18:02:13.681Z,75.98
2024-02-24T18:05:31.779Z,75.78
2024-02-24T18:08:49.605Z,76.11
2024-02-24T18:12:07.481Z,76.35
2024-02-24T18:15:25.995Z,76.01
2024-02-24T18:18:44.141Z,76.17
2024-02-24T18:22:01.783Z,76.58
2024-02-24T18:25:20.055Z,76.05
2024-02-24T18:28:38.554Z,76.25
2024-02-24T18:31:56.108Z,76.47
2024-02-24T18:35:14.844Z,76.38
2024-02-24T18:38:32.810Z,76.43
2024-02-24T18:41:50.519Z,76.41
2024-02-24T18:45:08.648Z,76.26
2024-02-24T18:48:26.434Z,76.29
2024-02-24T18:51:43.866Z,77.37
2024-02-24T18:55:01.435Z,78.41
2024-02-24T18:58:18.970Z,78.63
2024-02-24T19:01:36.625Z,78.46
2024-02-24T19:04:54.841Z,79.36
2024-02-24T19:08:13.838Z,79.16
2024-02-24T19:11:32.503Z,79.03
2024-02-24T19:14:54.829Z,79.73
2024-02-24T19:18:15.220Z,79.98
2024-02-24T19:21:33.664Z,80.01
2024-02-24T19:24:51.514Z,79.99
2024-02-24T19:28:08.927Z,80.52
2024-02-24T19:31:26.872Z,81.19
2024-02-24T19:34:44.485Z,81.74
2024-02-24T19:38:02.234Z,81.90
2024-02-24T19:41:20.353Z,82.26
2024-02-24T19:44:39.385Z,82.13
2024-02-24T19:47:57.231Z,83.01
2024-02-24T19:51:15.368Z,82.44
2024-02-24T19:54:33.076Z,82.46
2024-02-24T19:57:50.822Z,81.96
2024-02-24T20:01:10.390Z,82.31
2024-02-24T20:04:27.398Z,82.47
2024-02-24T20:07:42.428Z,82.57
2024-02-24T20:10:59.145Z,83.01
2024-02-24T20:14:13.905Z,83.32
2024-02-24T20:17:31.806Z,83.40
2024-02-24T20:20:49.368Z,83.57
2024-02-24T20:24:06.279Z,83.55
2024-02-24T20:27:20.880Z,82.67
2024-02-24T20:30:38.334Z,83.53
2024-02-24T20:34:00.637Z,83.43
2024-02-24T20:37:13.931Z,83.50
2024-02-24T20:40:31.188Z,82.58
2024-02-24T20:43:49.995Z,82.77
2024-02-24T20:51:03.134Z,83.56
2024-02-24T20:54:19.730Z,83.36
2024-02-24T20:57:36.315Z,83.22
2024-02-24T21:00:53.238Z,83.34
2024-02-24T21:04:10.751Z,83.28
2024-02-24T21:07:28.019Z,83.65
2024-02-24T21:10:44.856Z,84.09
2024-02-24T21:13:59.789Z,84.15
2024-02-24T21:17:16.501Z,84.61
2024-02-24T21:20:33.507Z,84.43
2024-02-24T21:23:52.315Z,84.47
2024-02-24T21:27:09.275Z,84.77
2024-02-24T21:30:27.169Z,85.47
2024-02-24T21:33:44.078Z,84.62
2024-02-24T21:36:59.010Z,85.01
2024-02-24T21:40:19.611Z,84.78
2024-02-24T21:43:36.777Z,85.19
2024-02-24T21:46:53.342Z,85.60
2024-02-24T21:50:10.961Z,85.78
2024-02-24T21:53:27.896Z,86.02
2024-02-24T21:56:44.388Z,85.62
2024-02-24T22:00:01.330Z,86.73
2024-02-24T22:03:18.279Z,85.99
2024-02-24T22:06:36.393Z,86.83
2024-02-24T22:09:53.984Z,86.32
2024-02-24T22:13:12.825Z,86.39
2024-02-24T22:16:30.248Z,86.18
2024-02-24T22:19:47.968Z,87.03
2024-02-24T22:23:06.154Z,86.49
2024-02-24T22:26:26.016Z,86.59
2024-02-24T22:29:44.505Z,86.29
2024-02-24T22:33:01.953Z,85.85
2024-02-24T22:36:22.501Z,86.72
2024-02-24T22:39:39.257Z,86.53
2024-02-24T22:42:56.880Z,86.35
2024-02-24T22:46:14.854Z,86.76
2024-02-24T22:49:32.644Z,86.88
2024-02-24T22:52:50.501Z,86.09
2024-02-24T22:56:08.236Z,87.35
2024-02-24T22:59:25.943Z,87.16
2024-02-24T23:02:45.595Z,86.82
2024-02-24T23:06:03.716Z,87.31
2024-02-24T23:09:21.628Z,87.64
2024-02-24T23:12:39.491Z,87.79
2024-02-24T23:15:57.418Z,87.71
2024-02-24T23:19:15.693Z,88.26
2024-02-24T23:22:34.587Z,87.42
2024-02-24T23:25:53.364Z,87.76
2024-02-24T23:29:12.357Z,88.15
2024-02-24T23:32:29.955Z,88.31
2024-02-24T23:35:47.866Z,88.17
2024-02-24T23:39:07.743Z,88.46
2024-02-24T23:42:25.188Z,87.77
2024-02-24T23:45:43.671Z,88.09
2024-02-24T23:49:01.232Z,88.18
2024-02-24T23:52:19.056Z,87.98
2024-02-24T23:55:37.185Z,87.68
2024-02-24T23:58:54.877Z,87.93
